createdAt,value
2023-02-21T00:00:19.076Z,10.65
2023-02-21T00:03:41.870Z,10.68
2023-02-21T00:07:04.582Z,10.76
2023-02-21T00:10:29.121Z,10.92
2023-02-21T00:13:54.985Z,11.26
2023-02-21T00:17:17.096Z,11.11
2023-02-21T00:20:42.158Z,11.25
2023-02-21T00:24:05.075Z,11.09
2023-02-21T00:27:27.097Z,11.31
2023-02-21T00:30:50.854Z,11.00
2023-02-21T00:34:12.917Z,10.90
2023-02-21T00:37:35.376Z,11.06
2023-02-21T00:40:57.524Z,10.49
2023-02-21T00:44:19.917Z,10.54
2023-02-21T00:47:41.814Z,10.06
2023-02-21T00:51:06.081Z,9.51
2023-02-21T00:54:27.752Z,9.46
2023-02-21T00:57:50.058Z,9.35
2023-02-21T01:01:12.240Z,9.32
2023-02-21T01:04:36.333Z,9.58
2023-02-21T01:07:58.668Z,9.55
2023-02-21T01:11:20.860Z,9.80
2023-02-21T01:14:44.659Z,10.02
2023-02-21T01:18:06.768Z,9.97
2023-02-21T01:21:35.380Z,10.34
2023-02-21T01:24:59.086Z,10.22
2023-02-21T01:28:20.808Z,10.16
2023-02-21T01:31:43.145Z,10.12
2023-02-21T01:35:05.311Z,10.17
2023-02-21T01:38:27.722Z,10.13
2023-02-21T01:41:49.322Z,10.15
2023-02-21T01:45:52.850Z,9.98
2023-02-21T01:49:17.139Z,10.02
2023-02-21T01:52:42.574Z,9.79
2023-02-21T01:56:07.389Z,9.55
2023-02-21T01:59:29.394Z,9.79
2023-02-21T02:03:09.200Z,9.79
2023-02-21T02:06:35.525Z,10.04
2023-02-21T02:09:57.750Z,9.85
2023-02-21T02:13:16.621Z,10.00
2023-02-21T02:16:57.219Z,9.83
2023-02-21T02:20:16.252Z,9.88
2023-02-21T02:23:38.091Z,9.72
2023-02-21T02:26:57.046Z,9.68
2023-02-21T02:30:28.447Z,9.67
2023-02-21T02:34:04.697Z,9.66
2023-02-21T02:37:46.705Z,9.68
2023-02-21T02:41:44.755Z,9.69
2023-02-21T02:44:56.965Z,9.71
2023-02-21T02:48:13.962Z,9.77
2023-02-21T02:51:18.652Z,9.56
2023-02-21T02:54:23.485Z,9.64
2023-02-21T02:57:29.474Z,9.62
2023-02-21T03:00:38.956Z,9.84
2023-02-21T03:03:57.334Z,9.86
2023-02-21T03:07:36.534Z,9.86
2023-02-21T03:11:13.581Z,9.76
2023-02-21T03:14:20.333Z,9.85
2023-02-21T03:17:27.331Z,10.02
2023-02-21T03:20:33.315Z,9.91
2023-02-21T03:23:39.280Z,9.56
2023-02-21T03:26:48.145Z,9.50
2023-02-21T03:29:56.278Z,9.79
2023-02-21T03:33:00.582Z,9.54
2023-02-21T03:36:06.741Z,9.67
2023-02-21T03:39:11.748Z,9.82
2023-02-21T03:42:14.920Z,9.75
2023-02-21T03:45:18.685Z,9.48
2023-02-21T03:48:31.712Z,9.44
2023-02-21T03:51:36.162Z,9.58
2023-02-21T03:54:42.562Z,9.64
2023-02-21T03:57:46.938Z,9.67
2023-02-21T04:00:51.885Z,9.45
2023-02-21T04:03:55.692Z,9.45
2023-02-21T04:06:59.580Z,9.63
2023-02-21T04:10:04.058Z,9.59
2023-02-21T04:13:13.974Z,9.55
2023-02-21T04:16:17.689Z,9.60
2023-02-21T04:19:21.558Z,9.58
2023-02-21T04:22:25.154Z,9.29
2023-02-21T04:25:28.304Z,9.32
2023-02-21T04:28:34.979Z,9.33
2023-02-21T04:31:39.114Z,9.32
2023-02-21T04:34:42.776Z,9.27
2023-02-21T04:37:46.567Z,9.06
2023-02-21T04:40:50.171Z,9.06
2023-02-21T04:43:54.070Z,8.89
2023-02-21T04:46:58.072Z,9.06
2023-02-21T04:50:01.239Z,8.94
2023-02-21T04:53:04.814Z,8.75
2023-02-21T04:56:09.168Z,8.70
2023-02-21T04:59:12.644Z,8.75
2023-02-21T05:02:16.372Z,8.73
2023-02-21T05:05:20.021Z,9.04
2023-02-21T05:08:27.402Z,8.59
2023-02-21T05:11:35.011Z,8.69
2023-02-21T05:14:39.787Z,8.60
2023-02-21T05:17:46.444Z,8.63
2023-02-21T05:20:50.408Z,8.67
2023-02-21T05:23:57.103Z,8.89
2023-02-21T05:27:01.404Z,8.95
2023-02-21T05:30:05.414Z,8.86
2023-02-21T05:33:12.030Z,9.02
2023-02-21T05:36:15.781Z,9.27
2023-02-21T05:39:18.934Z,8.94
2023-02-21T05:42:22.582Z,9.11
2023-02-21T05:45:25.778Z,8.84
2023-02-21T05:48:29.465Z,9.11
2023-02-21T05:51:42.147Z,9.21
2023-02-21T05:54:45.642Z,9.27
2023-02-21T05:57:48.775Z,9.10
2023-02-21T06:00:52.843Z,9.15
2023-02-21T06:03:56.644Z,9.42
2023-02-21T06:06:59.753Z,9.13
2023-02-21T06:10:04.792Z,8.92
2023-02-21T06:13:08.702Z,8.94
2023-02-21T06:16:12.211Z,9.25
2023-02-21T06:19:17.898Z,9.44
2023-02-21T06:22:21.490Z,9.38
2023-02-21T06:25:24.725Z,9.57
2023-02-21T06:28:31.811Z,9.60
2023-02-21T06:31:36.446Z,9.36
2023-02-21T06:34:40.173Z,9.63
2023-02-21T06:37:44.337Z,9.80
2023-02-21T06:40:47.891Z,10.05
2023-02-21T06:43:52.666Z,10.29
2023-02-21T06:46:57.154Z,10.24
2023-02-21T06:50:00.331Z,10.34
2023-02-21T06:53:03.769Z,10.35
2023-02-21T06:56:07.527Z,10.31
2023-02-21T06:59:10.997Z,10.25
2023-02-21T07:02:19.584Z,10.23
2023-02-21T07:05:23.135Z,10.30
2023-02-21T07:08:26.658Z,10.50
2023-02-21T07:11:33.540Z,10.65
2023-02-21T07:14:37.317Z,10.71
2023-02-21T07:17:42.014Z,10.61
2023-02-21T07:20:45.408Z,10.73
2023-02-21T07:23:49.603Z,10.96
2023-02-21T07:26:52.757Z,11.07
2023-02-21T07:29:56.344Z,11.13
2023-02-21T07:33:00.014Z,11.06
2023-02-21T07:36:03.714Z,11.02
2023-02-21T07:39:06.956Z,11.02
2023-02-21T07:42:13.394Z,11.16
2023-02-21T07:45:21.488Z,11.12
2023-02-21T07:48:25.015Z,11.03
2023-02-21T07:51:30.565Z,11.09
2023-02-21T07:54:34.252Z,11.06
2023-02-21T07:57:37.399Z,11.08
2023-02-21T08:00:41.737Z,11.05
2023-02-21T08:03:46.257Z,11.06
2023-02-21T08:06:50.014Z,11.21
2023-02-21T08:09:53.602Z,11.20
2023-02-21T08:12:56.783Z,11.28
2023-02-21T08:16:00.292Z,11.30
2023-02-21T08:19:05.651Z,11.28
2023-02-21T08:22:09.245Z,11.27
2023-02-21T08:25:14.049Z,11.46
2023-02-21T08:28:18.230Z,11.52
2023-02-21T08:31:21.900Z,11.62
2023-02-21T08:34:29.673Z,11.72
2023-02-21T08:37:36.464Z,11.74
2023-02-21T08:40:41.348Z,11.82
2023-02-21T08:43:46.678Z,11.95
2023-02-21T08:46:50.443Z,12.11
2023-02-21T08:49:53.785Z,12.30
2023-02-21T08:52:57.606Z,12.51
2023-02-21T08:56:01.011Z,12.70
2023-02-21T08:59:05.857Z,12.80
2023-02-21T09:02:20.774Z,12.94
2023-02-21T09:05:27.680Z,13.19
2023-02-21T09:08:33.642Z,13.35
2023-02-21T09:11:37.709Z,13.52
2023-02-21T09:14:42.819Z,13.22
2023-02-21T09:17:46.403Z,13.19
2023-02-21T09:20:52.269Z,13.17
2023-02-21T09:23:59.308Z,13.04
2023-02-21T09:27:03.400Z,13.05
2023-02-21T09:30:13.655Z,13.10
2023-02-21T09:33:17.803Z,13.05
2023-02-21T09:36:24.269Z,13.11
2023-02-21T09:39:27.589Z,13.27
2023-02-21T09:42:32.586Z,13.25
2023-02-21T09:45:37.545Z,13.01
2023-02-21T09:48:43.988Z,13.01
2023-02-21T09:51:49.328Z,13.30
2023-02-21T09:54:58.175Z,13.48
2023-02-21T09:58:01.782Z,13.69
2023-02-21T10:01:16.061Z,13.76
2023-02-21T10:04:57.892Z,13.60
2023-02-21T10:08:10.526Z,13.72
2023-02-21T10:11:28.739Z,13.81
2023-02-21T10:15:00.522Z,13.36
2023-02-21T10:18:28.902Z,13.60
2023-02-21T10:21:43.321Z,13.60
2023-02-21T10:24:49.389Z,13.23
2023-02-21T10:27:53.783Z,12.97
2023-02-21T10:31:03.378Z,13.20
2023-02-21T10:34:21.922Z,13.41
2023-02-21T10:37:51.123Z,13.87
2023-02-21T10:41:02.788Z,13.75
2023-02-21T10:44:22.607Z,14.01
2023-02-21T10:48:03.448Z,13.88
2023-02-21T10:51:10.924Z,13.92
2023-02-21T10:54:25.635Z,13.26
2023-02-21T10:57:32.136Z,13.93
2023-02-21T11:00:39.506Z,14.15
2023-02-21T11:03:50.655Z,14.39
2023-02-21T11:07:08.898Z,14.36
2023-02-21T11:10:31.405Z,14.95
2023-02-21T11:13:36.760Z,14.94
2023-02-21T11:16:41.403Z,15.07
2023-02-21T11:19:55.161Z,15.11
2023-02-21T11:22:58.865Z,15.09
2023-02-21T11:26:11.837Z,14.79
2023-02-21T11:29:22.071Z,14.68
2023-02-21T11:32:33.367Z,14.82
2023-02-21T11:35:52.006Z,14.92
2023-02-21T11:39:19.128Z,15.16
2023-02-21T11:42:31.289Z,15.16
2023-02-21T11:45:37.043Z,15.13
2023-02-21T11:48:58.963Z,14.68
2023-02-21T11:52:06.872Z,14.71
2023-02-21T11:55:19.792Z,15.15
2023-02-21T11:58:34.983Z,15.58
2023-02-21T12:02:18.134Z,15.04
2023-02-21T12:05:48.532Z,15.33
2023-02-21T12:09:17.134Z,15.30
2023-02-21T12:12:32.635Z,15.51
2023-02-21T12:15:57.933Z,15.36
2023-02-21T12:19:16.935Z,14.84
2023-02-21T12:23:05.539Z,14.36
2023-02-21T12:26:28.747Z,14.61
2023-02-21T12:29:35.074Z,14.45
2023-02-21T12:33:11.933Z,14.43
2023-02-21T12:36:46.000Z,13.91
2023-02-21T12:40:14.802Z,14.18
2023-02-21T12:43:50.129Z,13.94
2023-02-21T12:47:07.576Z,14.65
2023-02-21T12:50:18.674Z,14.52
2023-02-21T12:53:40.150Z,14.52
2023-02-21T12:56:53.914Z,14.75
2023-02-21T13:00:17.770Z,14.66
2023-02-21T13:03:50.113Z,14.72
2023-02-21T13:07:28.765Z,14.81
2023-02-21T13:10:56.007Z,14.65
2023-02-21T13:14:00.946Z,14.30
2023-02-21T13:17:04.222Z,14.70
2023-02-21T13:20:18.051Z,14.60
2023-02-21T13:23:59.306Z,14.79
2023-02-21T13:27:39.751Z,14.79
2023-02-21T13:30:48.302Z,14.60
2023-02-21T13:33:55.830Z,14.72
2023-02-21T13:37:07.595Z,14.55
2023-02-21T13:40:35.285Z,14.39
2023-02-21T13:43:52.966Z,14.36
2023-02-21T13:47:10.762Z,14.71
2023-02-21T13:50:39.582Z,14.37
2023-02-21T13:54:12.251Z,14.50
2023-02-21T13:57:33.957Z,14.50
2023-02-21T14:00:37.210Z,14.43
2023-02-21T14:03:41.839Z,14.42
2023-02-21T14:06:56.344Z,14.35
2023-02-21T14:10:00.213Z,14.42
2023-02-21T14:13:21.425Z,14.37
2023-02-21T14:16:30.582Z,13.96
2023-02-21T14:19:39.634Z,13.70
2023-02-21T14:22:44.578Z,13.60
2023-02-21T14:26:01.969Z,13.40
2023-02-21T14:29:08.683Z,13.27
2023-02-21T14:32:11.964Z,13.48
2023-02-21T14:35:24.499Z,13.66
2023-02-21T14:38:33.083Z,13.68
2023-02-21T14:41:36.906Z,13.62
2023-02-21T14:44:51.071Z,13.58
2023-02-21T14:48:01.666Z,13.43
2023-02-21T14:51:51.486Z,13.26
2023-02-21T14:55:32.830Z,13.16
2023-02-21T14:58:49.461Z,13.05
2023-02-21T15:02:16.325Z,13.12
2023-02-21T15:05:42.760Z,13.09
2023-02-21T15:08:49.550Z,13.06
2023-02-21T15:11:52.984Z,13.10
2023-02-21T15:14:58.451Z,13.11
2023-02-21T15:18:04.786Z,13.08
2023-02-21T15:21:11.562Z,13.08
2023-02-21T15:24:17.697Z,13.05
2023-02-21T15:27:21.541Z,12.95
2023-02-21T15:30:35.396Z,12.77
2023-02-21T15:33:43.212Z,12.76
2023-02-21T15:37:06.519Z,12.76
2023-02-21T15:40:24.771Z,12.84
2023-02-21T15:43:52.252Z,12.70
2023-02-21T15:46:59.350Z,12.59
2023-02-21T15:50:08.707Z,12.37
2023-02-21T15:53:24.558Z,12.35
2023-02-21T15:56:28.785Z,12.26
2023-02-21T15:59:33.525Z,12.11
2023-02-21T16:02:37.159Z,12.19
2023-02-21T16:05:41.126Z,12.08
2023-02-21T16:08:59.221Z,11.95
2023-02-21T16:12:27.301Z,11.92
2023-02-21T16:15:37.083Z,11.81
2023-02-21T16:18:42.442Z,11.87
2023-02-21T16:21:45.687Z,11.76
2023-02-21T16:24:49.762Z,11.80
2023-02-21T16:28:02.480Z,11.89
2023-02-21T16:31:09.269Z,11.84
2023-02-21T16:34:13.781Z,11.85
2023-02-21T16:37:20.020Z,11.83
2023-02-21T16:40:33.974Z,11.92
2023-02-21T16:43:39.301Z,11.74
2023-02-21T16:46:44.458Z,11.63
2023-02-21T16:49:49.695Z,12.08
2023-02-21T16:52:54.696Z,12.07
2023-02-21T16:56:01.804Z,12.08
2023-02-21T16:59:11.037Z,12.17
2023-02-21T17:02:15.578Z,12.01
2023-02-21T17:05:24.403Z,12.16
2023-02-21T17:08:28.587Z,12.19
2023-02-21T17:11:33.070Z,12.23
2023-02-21T17:14:39.054Z,12.26
2023-02-21T17:17:44.470Z,12.22
2023-02-21T17:20:59.267Z,12.03
2023-02-21T17:24:03.989Z,11.96
2023-02-21T17:27:11.121Z,12.09
2023-02-21T17:30:17.501Z,12.21
2023-02-21T17:33:22.958Z,12.10
2023-02-21T17:36:28.829Z,12.12
2023-02-21T17:39:33.231Z,12.08
2023-02-21T17:42:42.198Z,12.21
2023-02-21T17:45:50.324Z,12.13
2023-02-21T17:48:55.294Z,12.07
2023-02-21T17:52:00.448Z,12.18
2023-02-21T17:55:08.281Z,12.16
2023-02-21T17:58:14.245Z,12.04
2023-02-21T18:01:20.236Z,12.10
2023-02-21T18:04:26.690Z,12.12
2023-02-21T18:07:33.361Z,12.01
2023-02-21T18:10:40.893Z,11.98
2023-02-21T18:13:45.553Z,12.05
2023-02-21T18:16:51.610Z,12.04
2023-02-21T18:19:56.886Z,12.05
2023-02-21T18:23:04.140Z,11.83
2023-02-21T18:26:10.472Z,11.81
2023-02-21T18:29:17.066Z,11.76
2023-02-21T18:32:25.383Z,11.72
2023-02-21T18:35:31.768Z,11.73
2023-02-21T18:38:40.912Z,11.63
2023-02-21T18:41:46.962Z,11.49
2023-02-21T18:44:53.044Z,11.70
2023-02-21T18:48:06.357Z,11.69
2023-02-21T18:51:16.639Z,11.53
2023-02-21T18:54:23.383Z,11.36
2023-02-21T18:57:27.748Z,11.32
2023-02-21T19:00:38.435Z,11.50
2023-02-21T19:03:48.191Z,11.47
2023-02-21T19:06:55.667Z,11.33
2023-02-21T19:10:06.185Z,11.27
2023-02-21T19:13:12.737Z,11.17
2023-02-21T19:16:20.477Z,10.84
2023-02-21T19:19:32.889Z,10.54
2023-02-21T19:22:39.312Z,10.70
2023-02-21T19:25:46.522Z,10.61
2023-02-21T19:28:52.651Z,10.43
2023-02-21T19:31:59.695Z,10.50
2023-02-21T19:35:07.952Z,10.26
2023-02-21T19:38:14.947Z,10.27
2023-02-21T19:41:21.614Z,10.09
2023-02-21T19:44:30.430Z,10.12
2023-02-21T19:47:35.571Z,9.79
2023-02-21T19:50:42.129Z,9.91
2023-02-21T19:53:47.133Z,9.80
2023-02-21T19:56:55.330Z,9.63
2023-02-21T20:00:05.418Z,9.51
2023-02-21T20:03:12.513Z,9.83
2023-02-21T20:06:19.922Z,9.73
2023-02-21T20:09:27.224Z,9.63
2023-02-21T20:12:33.760Z,9.40
2023-02-21T20:15:45.680Z,9.43
2023-02-21T20:18:52.593Z,9.59
2023-02-21T20:22:00.812Z,9.87
2023-02-21T20:25:07.613Z,9.57
2023-02-21T20:28:12.560Z,9.68
2023-02-21T20:31:21.523Z,9.30
2023-02-21T20:34:30.049Z,9.19
2023-02-21T20:37:36.730Z,9.23
2023-02-21T20:40:43.523Z,9.12
2023-02-21T20:43:50.260Z,9.48
2023-02-21T20:46:57.863Z,9.57
2023-02-21T20:50:08.085Z,9.67
2023-02-21T20:53:18.638Z,9.63
2023-02-21T20:56:32.320Z,9.36
2023-02-21T20:59:42.933Z,9.52
2023-02-21T21:02:50.403Z,9.88
2023-02-21T21:05:57.003Z,9.85
2023-02-21T21:09:04.617Z,9.92
2023-02-21T21:12:11.890Z,9.72
2023-02-21T21:15:20.997Z,9.64
2023-02-21T21:18:28.330Z,9.57
2023-02-21T21:21:34.531Z,9.50
2023-02-21T21:24:41.001Z,9.45
2023-02-21T21:27:47.334Z,9.39
2023-02-21T21:30:53.934Z,9.12
2023-02-21T21:34:00.434Z,9.01
2023-02-21T21:37:06.808Z,9.01
2023-02-21T21:40:18.641Z,8.93
2023-02-21T21:43:29.624Z,8.99
2023-02-21T21:46:36.442Z,8.90
2023-02-21T21:49:40.828Z,8.83
2023-02-21T21:52:50.603Z,8.94
2023-02-21T21:55:54.448Z,8.77
2023-02-21T21:58:58.908Z,8.82
2023-02-21T22:02:03.269Z,8.90
2023-02-21T22:05:07.225Z,8.86
2023-02-21T22:08:16.550Z,9.03
2023-02-21T22:11:22.537Z,9.14
2023-02-21T22:14:25.937Z,9.17
2023-02-21T22:17:29.648Z,9.18
2023-02-21T22:20:36.305Z,9.13
2023-02-21T22:23:41.789Z,9.00
2023-02-21T22:26:45.030Z,9.07
2023-02-21T22:29:49.945Z,9.02
2023-02-21T22:32:53.339Z,9.01
2023-02-21T22:35:56.785Z,9.37
2023-02-21T22:39:08.401Z,9.37
2023-02-21T22:42:12.771Z,9.24
2023-02-21T22:45:17.204Z,9.16
2023-02-21T22:48:21.150Z,9.07
2023-02-21T22:51:28.388Z,9.00
2023-02-21T22:54:31.848Z,9.06
2023-02-21T22:57:35.707Z,9.13
2023-02-21T23:00:41.269Z,9.03
2023-02-21T23:03:44.174Z,8.92
2023-02-21T23:06:47.502Z,8.78
2023-02-21T23:09:50.532Z,8.45
2023-02-21T23:13:00.571Z,8.28
2023-02-21T23:16:04.034Z,8.04
2023-02-21T23:19:08.433Z,7.87
2023-02-21T23:22:12.017Z,7.79
2023-02-21T23:25:21.051Z,7.59
2023-02-21T23:28:26.663Z,7.44
2023-02-21T23:31:31.164Z,7.28
2023-02-21T23:34:40.934Z,7.04
2023-02-21T23:37:45.883Z,6.87
2023-02-21T23:40:56.333Z,6.77
2023-02-21T23:43:59.964Z,6.80
2023-02-21T23:47:06.118Z,6.78
2023-02-21T23:50:17.387Z,6.57
2023-02-21T23:53:22.904Z,6.33
2023-02-21T23:56:27.674Z,6.25
2023-02-21T23:59:32.195Z,6.07
